createdAt,value
2018-03-04T00:02:04.597Z,116.23
2018-03-04T00:04:32.261Z,111.93
2018-03-04T00:06:59.876Z,121.97
2018-03-04T00:09:27.537Z,104.57
2018-03-04T00:11:55.162Z,108.60
2018-03-04T00:14:22.852Z,124.27
2018-03-04T00:16:50.508Z,121.83
2018-03-04T00:19:18.183Z,118.23
2018-03-04T00:21:45.820Z,113.00
2018-03-04T00:24:13.479Z,109.87
2018-03-04T00:26:41.103Z,107.23
2018-03-04T00:29:08.759Z,83.33
2018-03-04T00:31:36.403Z,101.87
2018-03-04T00:34:04.011Z,112.53
2018-03-04T00:36:31.668Z,99.00
2018-03-04T00:38:59.288Z,106.10
2018-03-04T00:41:26.960Z,95.67
2018-03-04T00:43:54.600Z,111.10
2018-03-04T00:46:22.260Z,109.37
2018-03-04T00:48:49.873Z,114.63
2018-03-04T00:51:17.544Z,114.23
2018-03-04T00:53:45.171Z,98.83
2018-03-04T00:56:12.821Z,106.97
2018-03-04T00:58:40.460Z,110.80
2018-03-04T01:01:08.121Z,110.00
2018-03-04T01:03:35.748Z,101.63
2018-03-04T01:06:03.392Z,110.53
2018-03-04T01:08:31.003Z,110.93
2018-03-04T01:10:58.710Z,119.77
2018-03-04T01:13:26.374Z,119.17
2018-03-04T01:15:54.026Z,103.57
2018-03-04T01:18:21.632Z,94.77
2018-03-04T01:20:49.297Z,105.33
2018-03-04T01:23:16.918Z,77.77
2018-03-04T01:25:44.576Z,107.23
2018-03-04T01:28:12.232Z,102.13
2018-03-04T01:30:40.131Z,107.80
2018-03-04T01:33:07.774Z,108.73
2018-03-04T01:35:35.443Z,105.43
2018-03-04T01:38:03.065Z,107.37
2018-03-04T01:40:30.708Z,106.63
2018-03-04T01:42:58.368Z,100.43
2018-03-04T01:45:26.011Z,109.33
2018-03-04T01:47:53.620Z,87.33
2018-03-04T01:50:21.270Z,96.67
2018-03-04T01:52:48.885Z,119.37
2018-03-04T01:55:16.531Z,114.73
2018-03-04T01:57:44.144Z,97.70
2018-03-04T02:00:11.819Z,102.50
2018-03-04T02:02:39.420Z,103.10
2018-03-04T02:05:07.089Z,119.27
2018-03-04T02:07:34.736Z,114.93
2018-03-04T02:10:02.396Z,117.53
2018-03-04T02:12:30.022Z,110.87
2018-03-04T02:14:57.692Z,115.80
2018-03-04T02:17:25.317Z,105.30
2018-03-04T02:19:52.999Z,109.63
2018-03-04T02:22:20.616Z,113.97
2018-03-04T02:24:48.286Z,116.37
2018-03-04T02:27:15.913Z,106.67
2018-03-04T02:29:43.583Z,110.13
2018-03-04T02:32:11.189Z,121.07
2018-03-04T02:34:38.808Z,113.73
2018-03-04T02:37:06.456Z,99.83
2018-03-04T02:39:34.074Z,111.30
2018-03-04T02:42:01.741Z,125.93
2018-03-04T02:44:29.353Z,111.10
2018-03-04T02:46:57.005Z,127.37
2018-03-04T02:49:24.617Z,123.33
2018-03-04T02:51:52.297Z,127.90
2018-03-04T02:54:19.913Z,116.57
2018-03-04T02:56:47.560Z,121.53
2018-03-04T02:59:15.179Z,120.97
2018-03-04T03:01:42.828Z,122.40
2018-03-04T03:04:10.445Z,119.70
2018-03-04T03:06:38.109Z,113.93
2018-03-04T03:09:05.723Z,119.00
2018-03-04T03:11:33.381Z,122.60
2018-03-04T03:14:00.995Z,133.57
2018-03-04T03:16:29.316Z,129.40
2018-03-04T03:18:56.988Z,127.17
2018-03-04T03:21:24.649Z,136.33
2018-03-04T03:23:52.263Z,143.73
2018-03-04T03:26:19.912Z,139.83
2018-03-04T03:28:47.534Z,140.07
2018-03-04T03:31:15.193Z,118.23
2018-03-04T03:33:42.824Z,129.13
2018-03-04T03:36:10.477Z,121.20
2018-03-04T03:38:38.087Z,90.00
2018-03-04T03:41:05.744Z,120.40
2018-03-04T03:43:33.359Z,113.30
2018-03-04T03:46:01.109Z,96.63
2018-03-04T03:48:28.744Z,123.97
2018-03-04T03:50:56.433Z,123.67
2018-03-04T03:53:24.044Z,124.60
2018-03-04T03:55:51.692Z,125.23
2018-03-04T03:58:19.310Z,116.07
2018-03-04T04:00:46.967Z,128.93
2018-03-04T04:03:14.569Z,81.37
2018-03-04T04:05:42.216Z,82.60
2018-03-04T04:08:09.828Z,118.90
2018-03-04T04:10:37.484Z,109.53
2018-03-04T04:13:05.128Z,126.57
2018-03-04T04:15:32.791Z,104.83
2018-03-04T04:18:00.403Z,112.00
2018-03-04T04:20:28.065Z,116.83
2018-03-04T04:22:55.673Z,112.27
2018-03-04T04:25:23.347Z,122.27
2018-03-04T04:27:50.948Z,110.07
2018-03-04T04:30:18.597Z,139.27
2018-03-04T04:32:46.217Z,112.80
2018-03-04T04:35:13.867Z,122.40
2018-03-04T04:37:41.495Z,125.13
2018-03-04T04:40:09.111Z,108.60
2018-03-04T04:42:36.780Z,117.70
2018-03-04T04:45:04.397Z,126.83
2018-03-04T04:47:32.066Z,127.33
2018-03-04T04:49:59.677Z,109.20
2018-03-04T04:52:27.337Z,135.23
2018-03-04T04:54:54.971Z,135.87
2018-03-04T04:57:22.623Z,156.10
2018-03-04T04:59:50.244Z,130.27
2018-03-04T05:02:17.915Z,155.10
2018-03-04T05:04:45.824Z,185.40
2018-03-04T05:07:13.480Z,163.17
2018-03-04T05:09:41.107Z,161.90
2018-03-04T05:12:08.763Z,166.67
2018-03-04T05:14:36.372Z,163.57
2018-03-04T05:17:04.022Z,154.40
2018-03-04T05:19:31.634Z,188.33
2018-03-04T05:21:59.285Z,178.60
2018-03-04T05:24:26.913Z,187.30
2018-03-04T05:26:54.573Z,183.50
2018-03-04T05:29:22.191Z,192.03
2018-03-04T05:31:49.843Z,182.70
2018-03-04T05:34:17.456Z,180.43
2018-03-04T05:36:45.116Z,179.00
2018-03-04T05:39:12.753Z,178.60
2018-03-04T05:41:40.408Z,164.27
2018-03-04T05:44:08.031Z,174.00
2018-03-04T05:46:35.684Z,161.83
2018-03-04T05:49:03.329Z,169.10
2018-03-04T05:51:30.995Z,161.13
2018-03-04T05:53:58.619Z,175.37
2018-03-04T05:56:26.276Z,195.90
2018-03-04T05:58:53.906Z,160.47
2018-03-04T06:01:21.562Z,230.03
2018-03-04T06:03:49.177Z,245.60
2018-03-04T06:06:16.849Z,233.57
2018-03-04T06:08:44.732Z,216.10
2018-03-04T06:11:12.456Z,219.73
2018-03-04T06:13:40.069Z,196.30
2018-03-04T06:16:07.730Z,151.33
2018-03-04T06:18:35.404Z,184.93
2018-03-04T06:21:03.067Z,212.10
2018-03-04T06:23:30.685Z,213.20
2018-03-04T06:25:58.353Z,120.67
2018-03-04T06:28:25.971Z,227.03
2018-03-04T06:30:53.635Z,204.90
2018-03-04T06:33:21.240Z,212.80
2018-03-04T06:35:48.933Z,232.47
2018-03-04T06:38:16.549Z,252.00
2018-03-04T06:40:44.247Z,258.23
2018-03-04T06:43:11.877Z,224.40
2018-03-04T06:45:39.488Z,222.27
2018-03-04T06:48:07.141Z,218.27
2018-03-04T06:50:34.759Z,213.13
2018-03-04T06:53:02.411Z,216.50
2018-03-04T06:55:30.028Z,208.03
2018-03-04T06:57:57.701Z,243.67
2018-03-04T07:00:25.384Z,217.97
2018-03-04T07:02:53.045Z,209.83
2018-03-04T07:05:20.662Z,174.57
2018-03-04T07:07:48.361Z,212.43
2018-03-04T07:10:15.984Z,223.23
2018-03-04T07:12:43.672Z,246.80
2018-03-04T07:15:11.280Z,271.53
2018-03-04T07:17:38.932Z,242.30
2018-03-04T07:20:06.632Z,212.57
2018-03-04T07:22:34.280Z,260.30
2018-03-04T07:25:01.901Z,223.90
2018-03-04T07:27:29.555Z,205.53
2018-03-04T07:29:57.163Z,203.83
2018-03-04T07:32:24.820Z,230.47
2018-03-04T07:34:52.428Z,233.97
2018-03-04T07:37:20.107Z,257.60
2018-03-04T07:39:47.711Z,217.17
2018-03-04T07:42:15.356Z,243.30
2018-03-04T07:44:42.971Z,222.87
2018-03-04T07:47:10.640Z,236.37
2018-03-04T07:49:38.264Z,201.07
2018-03-04T07:52:05.956Z,190.17
2018-03-04T07:54:33.572Z,221.30
2018-03-04T07:57:01.224Z,251.03
2018-03-04T07:59:28.844Z,218.43
2018-03-04T08:01:56.505Z,212.93
2018-03-04T08:04:24.123Z,198.37
2018-03-04T08:06:51.785Z,258.00
2018-03-04T08:09:19.427Z,232.53
2018-03-04T08:11:47.081Z,273.63
2018-03-04T08:14:14.704Z,233.47
2018-03-04T08:16:42.373Z,205.57
2018-03-04T08:19:09.997Z,227.97
2018-03-04T08:21:37.676Z,177.97
2018-03-04T08:24:05.293Z,203.73
2018-03-04T08:26:44.718Z,207.33
2018-03-04T08:29:12.345Z,97.50
2018-03-04T08:31:39.992Z,98.27
2018-03-04T08:34:07.608Z,201.77
2018-03-04T08:36:35.267Z,192.60
2018-03-04T08:39:02.900Z,242.03
2018-03-04T08:41:30.549Z,213.93
2018-03-04T08:43:58.190Z,244.90
2018-03-04T08:46:25.933Z,249.37
2018-03-04T08:48:53.587Z,239.30
2018-03-04T08:51:21.195Z,209.67
2018-03-04T08:53:48.869Z,258.57
2018-03-04T08:56:16.478Z,278.33
2018-03-04T08:58:44.194Z,315.50
2018-03-04T09:01:11.831Z,253.37
2018-03-04T09:03:39.536Z,241.63
2018-03-04T09:06:07.159Z,226.87
2018-03-04T09:08:34.820Z,207.00
2018-03-04T09:11:02.435Z,180.93
2018-03-04T09:13:30.092Z,205.47
2018-03-04T09:15:57.721Z,223.30
2018-03-04T09:18:25.392Z,164.90
2018-03-04T09:20:53.009Z,207.30
2018-03-04T09:23:20.699Z,196.00
2018-03-04T09:25:48.409Z,181.80
2018-03-04T09:28:16.068Z,176.30
2018-03-04T09:30:43.683Z,167.57
2018-03-04T09:33:11.435Z,143.03
2018-03-04T09:35:39.055Z,167.23
2018-03-04T09:38:06.732Z,131.10
2018-03-04T09:40:34.364Z,126.70
2018-03-04T09:43:02.016Z,161.57
2018-03-04T09:45:29.637Z,189.10
2018-03-04T09:47:57.295Z,113.37
2018-03-04T09:50:24.929Z,155.03
2018-03-04T09:52:52.585Z,150.37
2018-03-04T09:55:20.202Z,107.40
2018-03-04T09:57:48.275Z,160.93
2018-03-04T10:00:15.920Z,128.50
2018-03-04T10:02:43.579Z,95.80
2018-03-04T10:05:11.191Z,119.07
2018-03-04T10:07:38.847Z,130.33
2018-03-04T10:10:06.501Z,154.53
2018-03-04T10:12:34.175Z,150.40
2018-03-04T10:15:01.804Z,114.87
2018-03-04T10:17:29.472Z,150.87
2018-03-04T10:19:57.177Z,111.67
2018-03-04T10:22:24.863Z,146.97
2018-03-04T10:24:52.480Z,169.10
2018-03-04T10:27:20.155Z,172.20
2018-03-04T10:29:47.784Z,63.03
2018-03-04T10:32:15.401Z,86.87
2018-03-04T10:34:43.088Z,165.80
2018-03-04T10:37:10.814Z,202.40
2018-03-04T10:39:38.505Z,161.27
2018-03-04T10:42:06.121Z,132.53
2018-03-04T10:44:33.801Z,126.83
2018-03-04T10:47:01.447Z,155.57
2018-03-04T10:49:29.106Z,126.97
2018-03-04T10:51:56.757Z,128.93
2018-03-04T10:54:24.443Z,64.70
2018-03-04T10:56:52.061Z,123.20
2018-03-04T10:59:19.704Z,65.77
2018-03-04T11:01:52.196Z,141.37
2018-03-04T11:04:19.900Z,123.03
2018-03-04T11:06:47.551Z,108.43
2018-03-04T11:09:15.264Z,154.67
2018-03-04T11:11:42.899Z,142.03
2018-03-04T11:14:10.553Z,56.03
2018-03-04T11:16:38.173Z,80.30
2018-03-04T11:19:05.827Z,133.03
2018-03-04T11:21:33.493Z,143.40
2018-03-04T11:24:01.149Z,137.40
2018-03-04T11:26:28.761Z,105.00
2018-03-04T11:28:56.428Z,123.90
2018-03-04T11:31:24.039Z,115.63
2018-03-04T11:33:51.697Z,112.53
2018-03-04T11:36:19.306Z,116.60
2018-03-04T11:38:46.969Z,121.33
2018-03-04T11:41:14.600Z,130.13
2018-03-04T11:43:42.248Z,92.90
2018-03-04T11:46:09.857Z,104.43
2018-03-04T11:48:37.516Z,124.47
2018-03-04T11:51:05.137Z,116.00
2018-03-04T11:53:32.820Z,126.70
2018-03-04T11:56:00.429Z,72.07
2018-03-04T11:58:28.094Z,126.63
2018-03-04T12:00:55.720Z,95.63
2018-03-04T12:03:23.367Z,127.87
2018-03-04T12:05:51.000Z,113.47
2018-03-04T12:08:18.673Z,136.00
2018-03-04T12:10:46.287Z,147.53
2018-03-04T12:13:13.928Z,98.73
2018-03-04T12:15:41.718Z,115.93
2018-03-04T12:18:09.380Z,140.73
2018-03-04T12:20:37.018Z,142.87
2018-03-04T12:23:04.664Z,127.83
2018-03-04T12:25:32.281Z,134.70
2018-03-04T12:27:59.940Z,143.57
2018-03-04T12:30:27.563Z,123.47
2018-03-04T12:32:55.214Z,105.23
2018-03-04T12:35:22.885Z,102.03
2018-03-04T12:37:50.493Z,117.20
2018-03-04T12:40:18.148Z,113.80
2018-03-04T12:42:45.751Z,112.57
2018-03-04T12:45:13.409Z,106.10
2018-03-04T12:47:41.044Z,98.37
2018-03-04T12:50:08.693Z,98.70
2018-03-04T12:52:36.403Z,92.13
2018-03-04T12:55:04.079Z,103.73
2018-03-04T12:57:31.681Z,99.07
2018-03-04T12:59:59.383Z,101.77
2018-03-04T13:02:27.006Z,101.37
2018-03-04T13:04:54.735Z,103.10
2018-03-04T13:07:22.348Z,96.67
2018-03-04T13:09:49.999Z,87.37
2018-03-04T13:12:17.621Z,87.57
2018-03-04T13:14:45.292Z,93.43
2018-03-04T13:17:12.960Z,83.47
2018-03-04T13:19:40.664Z,89.67
2018-03-04T13:22:08.433Z,87.57
2018-03-04T13:24:36.090Z,84.10
2018-03-04T13:27:03.701Z,89.53
2018-03-04T13:29:31.358Z,78.87
2018-03-04T13:31:59.093Z,96.83
2018-03-04T13:34:26.764Z,89.43
2018-03-04T13:36:54.377Z,85.20
2018-03-04T13:39:22.058Z,79.43
2018-03-04T13:41:49.700Z,75.93
2018-03-04T13:44:17.364Z,72.60
2018-03-04T13:46:44.990Z,83.00
2018-03-04T13:49:12.636Z,76.23
2018-03-04T13:51:40.235Z,81.77
2018-03-04T13:54:07.889Z,89.43
2018-03-04T13:56:35.546Z,85.10
2018-03-04T13:59:03.412Z,73.83
2018-03-04T14:01:31.177Z,76.60
2018-03-04T14:03:59.043Z,95.67
2018-03-04T14:06:26.790Z,89.50
2018-03-04T14:08:54.565Z,85.37
2018-03-04T14:11:22.276Z,86.40
2018-03-04T14:13:50.067Z,76.20
2018-03-04T14:16:17.838Z,78.57
2018-03-04T14:18:45.729Z,72.67
2018-03-04T14:21:13.495Z,78.13
2018-03-04T14:23:41.258Z,95.67
2018-03-04T14:26:08.998Z,83.83
2018-03-04T14:28:36.792Z,79.87
2018-03-04T14:31:04.606Z,85.23
2018-03-04T14:33:32.419Z,80.93
2018-03-04T14:36:00.089Z,77.80
2018-03-04T14:38:27.948Z,85.03
2018-03-04T14:40:55.607Z,74.90
2018-03-04T14:43:23.227Z,79.70
2018-03-04T14:45:50.895Z,89.43
2018-03-04T14:48:18.558Z,86.73
2018-03-04T14:50:46.213Z,80.90
2018-03-04T14:53:13.819Z,84.90
2018-03-04T14:55:41.484Z,87.00
2018-03-04T14:58:09.099Z,86.43
2018-03-04T15:00:36.748Z,89.67
2018-03-04T15:03:04.351Z,91.90
2018-03-04T15:05:32.009Z,82.27
2018-03-04T15:07:59.631Z,80.63
2018-03-04T15:10:27.301Z,81.17
2018-03-04T15:12:54.956Z,82.53
2018-03-04T15:15:22.619Z,81.27
2018-03-04T15:17:50.265Z,82.50
2018-03-04T15:20:17.915Z,91.03
2018-03-04T15:22:45.527Z,83.33
2018-03-04T15:25:13.185Z,90.03
2018-03-04T15:27:40.801Z,92.07
2018-03-04T15:30:08.468Z,91.80
2018-03-04T15:32:36.080Z,90.77
2018-03-04T15:35:03.737Z,87.87
2018-03-04T15:37:31.346Z,82.97
2018-03-04T15:39:59.000Z,86.20
2018-03-04T15:42:26.646Z,85.70
2018-03-04T15:44:54.304Z,82.50
2018-03-04T15:47:21.924Z,83.80
2018-03-04T15:49:49.664Z,83.37
2018-03-04T15:52:17.330Z,80.90
2018-03-04T15:54:45.501Z,85.20
2018-03-04T15:57:13.246Z,99.27
2018-03-04T15:59:40.963Z,87.10
2018-03-04T16:02:08.592Z,85.10
2018-03-04T16:04:36.242Z,90.40
2018-03-04T16:07:03.887Z,91.07
2018-03-04T16:09:31.568Z,98.40
2018-03-04T16:11:59.302Z,82.23
2018-03-04T16:14:26.957Z,80.77
2018-03-04T16:16:54.574Z,87.80
2018-03-04T16:19:22.229Z,77.40
2018-03-04T16:21:49.888Z,88.37
2018-03-04T16:24:17.681Z,84.53
2018-03-04T16:26:45.301Z,85.83
2018-03-04T16:29:13.037Z,89.47
2018-03-04T16:31:40.670Z,89.20
2018-03-04T16:34:08.526Z,91.83
2018-03-04T16:36:36.141Z,87.93
2018-03-04T16:39:03.943Z,88.83
2018-03-04T16:41:31.607Z,97.27
2018-03-04T16:43:59.253Z,95.33
2018-03-04T16:46:26.859Z,94.30
2018-03-04T16:48:54.504Z,103.37
2018-03-04T16:51:22.153Z,88.60
2018-03-04T16:53:49.764Z,102.07
2018-03-04T16:56:17.420Z,90.20
2018-03-04T16:58:45.031Z,90.37
2018-03-04T17:01:12.694Z,96.60
2018-03-04T17:03:40.296Z,86.50
2018-03-04T17:06:07.947Z,92.70
2018-03-04T17:08:35.557Z,86.67
2018-03-04T17:11:03.228Z,93.13
2018-03-04T17:13:30.921Z,93.90
2018-03-04T17:15:58.574Z,96.13
2018-03-04T17:18:26.175Z,94.93
2018-03-04T17:20:53.892Z,99.00
2018-03-04T17:23:21.495Z,97.00
2018-03-04T17:25:49.156Z,89.73
2018-03-04T17:28:16.768Z,97.30
2018-03-04T17:30:44.421Z,96.07
2018-03-04T17:33:12.037Z,85.73
2018-03-04T17:35:39.721Z,99.00
2018-03-04T17:38:07.332Z,91.90
2018-03-04T17:40:34.990Z,95.93
2018-03-04T17:43:02.604Z,87.63
2018-03-04T17:45:30.312Z,89.30
2018-03-04T17:47:57.942Z,86.63
2018-03-04T17:50:25.620Z,82.20
2018-03-04T17:52:53.272Z,97.83
2018-03-04T17:55:20.936Z,85.17
2018-03-04T17:57:48.536Z,89.10
2018-03-04T18:00:16.192Z,95.97
2018-03-04T18:02:43.808Z,97.37
2018-03-04T18:05:11.469Z,96.70
2018-03-04T18:07:39.075Z,98.87
2018-03-04T18:10:06.736Z,96.70
2018-03-04T18:12:34.342Z,99.90
2018-03-04T18:15:02.012Z,94.37
2018-03-04T18:17:29.654Z,100.17
2018-03-04T18:19:57.323Z,100.73
2018-03-04T18:22:24.943Z,108.10
2018-03-04T18:24:52.608Z,111.03
2018-03-04T18:27:20.233Z,104.57
2018-03-04T18:29:47.901Z,110.70
2018-03-04T18:32:15.513Z,97.53
2018-03-04T18:34:43.170Z,98.03
2018-03-04T18:37:10.791Z,94.50
2018-03-04T18:39:38.470Z,99.63
2018-03-04T18:42:06.120Z,102.70
2018-03-04T18:44:33.787Z,98.13
2018-03-04T18:47:01.409Z,95.67
2018-03-04T18:49:29.059Z,98.60
2018-03-04T18:51:56.672Z,96.33
2018-03-04T18:54:24.332Z,110.43
2018-03-04T18:56:52.004Z,98.00
2018-03-04T18:59:19.638Z,99.03
2018-03-04T19:01:47.298Z,82.83
2018-03-04T19:04:14.944Z,82.33
2018-03-04T19:06:42.703Z,90.90
2018-03-04T19:09:10.337Z,87.00
2018-03-04T19:11:38.012Z,83.27
2018-03-04T19:14:05.615Z,96.00
2018-03-04T19:16:33.283Z,100.77
2018-03-04T19:19:00.906Z,97.77
2018-03-04T19:21:28.568Z,95.50
2018-03-04T19:23:56.175Z,98.93
2018-03-04T19:26:23.828Z,109.80
2018-03-04T19:28:51.571Z,106.20
2018-03-04T19:31:19.322Z,103.20
2018-03-04T19:33:46.965Z,102.53
2018-03-04T19:36:15.280Z,108.47
2018-03-04T19:38:42.937Z,100.13
2018-03-04T19:41:10.587Z,109.43
2018-03-04T19:43:38.235Z,115.23
2018-03-04T19:46:05.885Z,95.80
2018-03-04T19:48:33.532Z,113.37
2018-03-04T19:51:01.192Z,106.00
2018-03-04T19:53:28.808Z,105.00
2018-03-04T19:55:56.471Z,119.33
2018-03-04T19:58:24.089Z,115.47
2018-03-04T20:00:51.767Z,140.83
2018-03-04T20:03:19.416Z,150.37
2018-03-04T20:05:47.088Z,149.90
2018-03-04T20:08:14.701Z,136.93
2018-03-04T20:10:42.340Z,119.77
2018-03-04T20:13:10.003Z,113.73
2018-03-04T20:15:37.643Z,112.07
2018-03-04T20:18:05.300Z,114.93
2018-03-04T20:20:32.989Z,112.13
2018-03-04T20:23:00.627Z,110.17
2018-03-04T20:25:28.237Z,106.37
2018-03-04T20:27:55.940Z,99.70
2018-03-04T20:30:23.608Z,103.20
2018-03-04T20:32:51.267Z,97.90
2018-03-04T20:35:18.916Z,101.93
2018-03-04T20:37:46.568Z,115.70
2018-03-04T20:40:14.204Z,109.37
2018-03-04T20:42:41.920Z,124.57
2018-03-04T20:45:09.531Z,125.17
2018-03-04T20:47:37.193Z,122.43
2018-03-04T20:50:04.812Z,123.60
2018-03-04T20:52:32.475Z,112.57
2018-03-04T20:55:00.097Z,121.90
2018-03-04T20:57:27.796Z,116.13
2018-03-04T20:59:55.421Z,111.50
2018-03-04T21:02:23.082Z,122.43
2018-03-04T21:04:50.689Z,111.40
2018-03-04T21:07:18.331Z,104.73
2018-03-04T21:09:45.963Z,109.17
2018-03-04T21:12:13.628Z,98.70
2018-03-04T21:14:41.358Z,100.23
2018-03-04T21:17:09.060Z,99.80
2018-03-04T21:19:36.664Z,98.60
2018-03-04T21:22:04.349Z,88.67
2018-03-04T21:24:31.996Z,115.77
2018-03-04T21:26:59.657Z,109.20
2018-03-04T21:29:28.312Z,131.17
2018-03-04T21:31:56.358Z,133.70
2018-03-04T21:34:23.991Z,131.03
2018-03-04T21:36:51.652Z,146.73
2018-03-04T21:39:19.273Z,151.07
2018-03-04T21:41:46.937Z,112.67
2018-03-04T21:44:14.554Z,133.67
2018-03-04T21:46:42.392Z,124.67
2018-03-04T21:49:10.010Z,95.33
2018-03-04T21:51:37.748Z,79.37
2018-03-04T21:54:05.443Z,80.03
2018-03-04T21:56:33.101Z,74.50
2018-03-04T21:59:00.820Z,101.57
2018-03-04T22:01:28.516Z,97.53
2018-03-04T22:03:56.169Z,96.97
2018-03-04T22:06:23.801Z,96.00
2018-03-04T22:08:51.459Z,94.87
2018-03-04T22:11:19.077Z,92.80
2018-03-04T22:13:46.765Z,91.77
2018-03-04T22:16:14.374Z,101.43
2018-03-04T22:18:42.057Z,96.80
2018-03-04T22:21:09.664Z,98.93
2018-03-04T22:23:37.356Z,98.10
2018-03-04T22:26:05.024Z,98.73
2018-03-04T22:28:32.683Z,113.07
2018-03-04T22:31:00.298Z,97.30
2018-03-04T22:33:27.952Z,99.67
2018-03-04T22:35:55.577Z,103.90
2018-03-04T22:38:23.227Z,121.90
2018-03-04T22:40:50.841Z,116.17
2018-03-04T22:43:18.497Z,127.00
2018-03-04T22:45:46.120Z,87.07
2018-03-04T22:48:13.770Z,72.30
2018-03-04T22:50:41.401Z,55.93
2018-03-04T22:53:09.115Z,62.00
2018-03-04T22:55:36.785Z,77.63
2018-03-04T22:58:04.440Z,86.10
2018-03-04T23:00:32.108Z,78.63
2018-03-04T23:02:59.744Z,64.97
2018-03-04T23:05:27.347Z,75.30
2018-03-04T23:07:55.020Z,65.83
2018-03-04T23:10:22.625Z,72.83
2018-03-04T23:12:50.283Z,67.30
2018-03-04T23:15:17.888Z,59.83
2018-03-04T23:17:46.400Z,57.33
2018-03-04T23:20:14.017Z,83.20
2018-03-04T23:22:41.696Z,76.40
2018-03-04T23:25:09.317Z,108.20
2018-03-04T23:27:36.975Z,109.83
2018-03-04T23:30:04.587Z,119.50
2018-03-04T23:32:32.248Z,111.80
2018-03-04T23:35:00.000Z,127.23
2018-03-04T23:37:27.658Z,129.80
2018-03-04T23:39:55.268Z,121.87
2018-03-04T23:42:22.921Z,115.40
2018-03-04T23:44:50.531Z,117.57
2018-03-04T23:47:18.176Z,105.10
2018-03-04T23:49:45.792Z,112.73
2018-03-04T23:52:13.439Z,105.00
2018-03-04T23:54:41.060Z,102.07
2018-03-04T23:57:08.712Z,95.03
2018-03-04T23:59:36.327Z,112.43
